sensor_id;sensor_type;location;lat;lon;timestamp;temperature;humidity
7566;DHT22;3824;48.010;7.832;2022-08-02T00:00:16;17.00;99.90
7566;DHT22;3824;48.010;7.832;2022-08-02T00:02:44;17.00;99.90
7566;DHT22;3824;48.010;7.832;2022-08-02T00:05:13;17.00;99.90
7566;DHT22;3824;48.010;7.832;2022-08-02T00:07:40;17.00;99.90
7566;DHT22;3824;48.010;7.832;2022-08-02T00:10:08;17.00;99.90
7566;DHT22;3824;48.010;7.832;2022-08-02T00:12:36;17.00;99.90
7566;DHT22;3824;48.010;7.832;2022-08-02T00:15:04;17.00;99.90
7566;DHT22;3824;48.010;7.832;2022-08-02T00:17:31;17.00;99.90
7566;DHT22;3824;48.010;7.832;2022-08-02T00:19:57;17.00;99.90
7566;DHT22;3824;48.010;7.832;2022-08-02T00:22:26;17.00;99.90
7566;DHT22;3824;48.010;7.832;2022-08-02T00:24:53;16.40;99.90
7566;DHT22;3824;48.010;7.832;2022-08-02T00:27:20;17.10;99.90
7566;DHT22;3824;48.010;7.832;2022-08-02T00:29:46;17.10;99.90
7566;DHT22;3824;48.010;7.832;2022-08-02T00:32:15;17.10;99.90
7566;DHT22;3824;48.010;7.832;2022-08-02T00:34:42;17.10;99.90
7566;DHT22;3824;48.010;7.832;2022-08-02T00:37:08;17.10;99.90
7566;DHT22;3824;48.010;7.832;2022-08-02T00:39:37;17.00;99.90
7566;DHT22;3824;48.010;7.832;2022-08-02T00:42:05;17.00;99.90
7566;DHT22;3824;48.010;7.832;2022-08-02T00:44:31;16.90;99.90
7566;DHT22;3824;48.010;7.832;2022-08-02T00:46:58;16.90;99.90
7566;DHT22;3824;48.010;7.832;2022-08-02T00:49:26;16.80;99.90
7566;DHT22;3824;48.010;7.832;2022-08-02T00:51:52;16.90;99.90
7566;DHT22;3824;48.010;7.832;2022-08-02T00:54:19;16.80;99.90
7566;DHT22;3824;48.010;7.832;2022-08-02T00:56:47;16.80;99.90
7566;DHT22;3824;48.010;7.832;2022-08-02T00:59:14;16.70;99.90
7566;DHT22;3824;48.010;7.832;2022-08-02T01:01:41;16.60;99.90
7566;DHT22;3824;48.010;7.832;2022-08-02T01:04:09;16.60;99.90
7566;DHT22;3824;48.010;7.832;2022-08-02T01:06:37;16.60;99.90
7566;DHT22;3824;48.010;7.832;2022-08-02T01:09:05;16.60;99.90
7566;DHT22;3824;48.010;7.832;2022-08-02T01:11:33;16.60;99.90
7566;DHT22;3824;48.010;7.832;2022-08-02T01:14:03;16.60;99.90
7566;DHT22;3824;48.010;7.832;2022-08-02T01:16:37;16.60;99.90
7566;DHT22;3824;48.010;7.832;2022-08-02T01:19:14;16.60;99.90
7566;DHT22;3824;48.010;7.832;2022-08-02T01:21:55;16.60;99.90
7566;DHT22;3824;48.010;7.832;2022-08-02T01:24:36;16.60;99.90
7566;DHT22;3824;48.010;7.832;2022-08-02T01:27:23;16.60;99.90
7566;DHT22;3824;48.010;7.832;2022-08-02T01:29:58;16.50;99.90
7566;DHT22;3824;48.010;7.832;2022-08-02T01:32:30;16.40;99.90
7566;DHT22;3824;48.010;7.832;2022-08-02T01:35:01;16.40;99.90
7566;DHT22;3824;48.010;7.832;2022-08-02T01:37:33;16.40;99.90
7566;DHT22;3824;48.010;7.832;2022-08-02T01:40:07;16.30;99.90
7566;DHT22;3824;48.010;7.832;2022-08-02T01:42:37;16.30;99.90
7566;DHT22;3824;48.010;7.832;2022-08-02T01:45:08;16.30;99.90
7566;DHT22;3824;48.010;7.832;2022-08-02T01:47:39;16.30;99.90
7566;DHT22;3824;48.010;7.832;2022-08-02T01:50:11;16.40;99.90
7566;DHT22;3824;48.010;7.832;2022-08-02T01:52:42;16.30;99.90
7566;DHT22;3824;48.010;7.832;2022-08-02T01:55:13;16.40;99.90
7566;DHT22;3824;48.010;7.832;2022-08-02T01:57:44;16.40;99.90
7566;DHT22;3824;48.010;7.832;2022-08-02T02:00:14;16.40;99.90
7566;DHT22;3824;48.010;7.832;2022-08-02T02:02:43;16.40;99.90
7566;DHT22;3824;48.010;7.832;2022-08-02T02:05:14;16.40;99.90
7566;DHT22;3824;48.010;7.832;2022-08-02T02:07:43;16.50;99.90
7566;DHT22;3824;48.010;7.832;2022-08-02T02:10:13;16.50;99.90
7566;DHT22;3824;48.010;7.832;2022-08-02T02:12:45;16.50;99.90
7566;DHT22;3824;48.010;7.832;2022-08-02T02:15:14;16.50;99.90
7566;DHT22;3824;48.010;7.832;2022-08-02T02:17:43;16.50;99.90
7566;DHT22;3824;48.010;7.832;2022-08-02T02:20:13;16.50;99.90
7566;DHT22;3824;48.010;7.832;2022-08-02T02:22:40;16.50;99.90
7566;DHT22;3824;48.010;7.832;2022-08-02T02:25:09;16.50;99.90
7566;DHT22;3824;48.010;7.832;2022-08-02T02:27:38;16.50;99.90
7566;DHT22;3824;48.010;7.832;2022-08-02T02:30:09;16.50;99.90
7566;DHT22;3824;48.010;7.832;2022-08-02T02:32:39;16.60;99.90
7566;DHT22;3824;48.010;7.832;2022-08-02T02:35:08;16.50;99.90
7566;DHT22;3824;48.010;7.832;2022-08-02T02:37:37;16.60;99.90
7566;DHT22;3824;48.010;7.832;2022-08-02T02:40:06;16.50;99.90
7566;DHT22;3824;48.010;7.832;2022-08-02T02:42:34;16.50;99.90
7566;DHT22;3824;48.010;7.832;2022-08-02T02:45:02;13.80;99.90
7566;DHT22;3824;48.010;7.832;2022-08-02T02:47:31;16.50;99.90
7566;DHT22;3824;48.010;7.832;2022-08-02T02:50:01;16.60;99.90
7566;DHT22;3824;48.010;7.832;2022-08-02T02:52:28;16.50;99.90
7566;DHT22;3824;48.010;7.832;2022-08-02T02:54:56;16.50;99.90
7566;DHT22;3824;48.010;7.832;2022-08-02T02:57:24;16.50;99.90
7566;DHT22;3824;48.010;7.832;2022-08-02T02:59:51;16.50;99.90
7566;DHT22;3824;48.010;7.832;2022-08-02T03:02:19;16.40;99.90
7566;DHT22;3824;48.010;7.832;2022-08-02T03:04:47;16.40;99.90
7566;DHT22;3824;48.010;7.832;2022-08-02T03:07:16;16.40;99.90
7566;DHT22;3824;48.010;7.832;2022-08-02T03:09:43;16.30;99.90
7566;DHT22;3824;48.010;7.832;2022-08-02T03:12:10;16.30;99.90
7566;DHT22;3824;48.010;7.832;2022-08-02T03:14:40;16.30;99.90
7566;DHT22;3824;48.010;7.832;2022-08-02T03:17:08;16.30;99.90
7566;DHT22;3824;48.010;7.832;2022-08-02T03:19:35;16.30;99.90
7566;DHT22;3824;48.010;7.832;2022-08-02T03:22:02;16.20;99.90
7566;DHT22;3824;48.010;7.832;2022-08-02T03:24:30;16.20;99.90
7566;DHT22;3824;48.010;7.832;2022-08-02T03:26:57;16.20;99.90
7566;DHT22;3824;48.010;7.832;2022-08-02T03:29:24;16.20;99.90
7566;DHT22;3824;48.010;7.832;2022-08-02T03:31:51;16.20;99.90
7566;DHT22;3824;48.010;7.832;2022-08-02T03:34:19;16.10;99.90
7566;DHT22;3824;48.010;7.832;2022-08-02T03:36:48;16.20;99.90
7566;DHT22;3824;48.010;7.832;2022-08-02T03:39:18;16.10;99.90
7566;DHT22;3824;48.010;7.832;2022-08-02T03:41:48;16.00;99.90
7566;DHT22;3824;48.010;7.832;2022-08-02T03:44:15;16.00;99.90
7566;DHT22;3824;48.010;7.832;2022-08-02T03:46:43;16.00;99.90
7566;DHT22;3824;48.010;7.832;2022-08-02T03:49:11;16.00;99.90
7566;DHT22;3824;48.010;7.832;2022-08-02T03:51:41;16.00;99.90
7566;DHT22;3824;48.010;7.832;2022-08-02T03:54:08;16.10;99.90
7566;DHT22;3824;48.010;7.832;2022-08-02T03:56:35;16.00;99.90
7566;DHT22;3824;48.010;7.832;2022-08-02T03:59:11;16.10;99.90
7566;DHT22;3824;48.010;7.832;2022-08-02T04:01:38;16.10;99.90
7566;DHT22;3824;48.010;7.832;2022-08-02T04:04:06;16.10;99.90
7566;DHT22;3824;48.010;7.832;2022-08-02T04:06:33;16.10;99.90
7566;DHT22;3824;48.010;7.832;2022-08-02T04:09:00;16.20;99.90
7566;DHT22;3824;48.010;7.832;2022-08-02T04:11:27;16.20;99.90
7566;DHT22;3824;48.010;7.832;2022-08-02T04:13:57;16.20;99.90
7566;DHT22;3824;48.010;7.832;2022-08-02T04:16:33;16.30;99.90
7566;DHT22;3824;48.010;7.832;2022-08-02T04:19:04;16.30;99.90
7566;DHT22;3824;48.010;7.832;2022-08-02T04:21:36;16.30;99.90
7566;DHT22;3824;48.010;7.832;2022-08-02T04:24:05;16.40;99.90
7566;DHT22;3824;48.010;7.832;2022-08-02T04:26:35;16.40;99.90
7566;DHT22;3824;48.010;7.832;2022-08-02T04:29:03;16.40;99.90
7566;DHT22;3824;48.010;7.832;2022-08-02T04:31:32;16.50;99.90
7566;DHT22;3824;48.010;7.832;2022-08-02T04:34:00;16.50;99.90
7566;DHT22;3824;48.010;7.832;2022-08-02T04:36:27;16.60;99.90
7566;DHT22;3824;48.010;7.832;2022-08-02T04:38:54;16.60;99.90
7566;DHT22;3824;48.010;7.832;2022-08-02T04:41:21;16.70;99.90
7566;DHT22;3824;48.010;7.832;2022-08-02T04:43:48;16.70;99.90
7566;DHT22;3824;48.010;7.832;2022-08-02T04:46:15;16.80;99.90
7566;DHT22;3824;48.010;7.832;2022-08-02T04:48:43;16.80;99.90
7566;DHT22;3824;48.010;7.832;2022-08-02T04:51:10;16.70;99.90
7566;DHT22;3824;48.010;7.832;2022-08-02T04:53:37;16.60;99.90
7566;DHT22;3824;48.010;7.832;2022-08-02T04:56:04;16.60;99.90
7566;DHT22;3824;48.010;7.832;2022-08-02T04:58:31;16.50;99.90
7566;DHT22;3824;48.010;7.832;2022-08-02T05:00:58;16.40;99.90
7566;DHT22;3824;48.010;7.832;2022-08-02T05:03:24;16.40;99.90
7566;DHT22;3824;48.010;7.832;2022-08-02T05:05:53;16.50;99.90
7566;DHT22;3824;48.010;7.832;2022-08-02T05:08:20;16.50;99.90
7566;DHT22;3824;48.010;7.832;2022-08-02T05:10:46;16.50;99.90
7566;DHT22;3824;48.010;7.832;2022-08-02T05:13:13;16.50;99.90
7566;DHT22;3824;48.010;7.832;2022-08-02T05:15:40;16.60;99.90
7566;DHT22;3824;48.010;7.832;2022-08-02T05:18:07;16.60;99.90
7566;DHT22;3824;48.010;7.832;2022-08-02T05:20:34;16.70;99.90
7566;DHT22;3824;48.010;7.832;2022-08-02T05:23:02;16.80;99.90
7566;DHT22;3824;48.010;7.832;2022-08-02T05:25:29;16.90;99.90
7566;DHT22;3824;48.010;7.832;2022-08-02T05:27:56;16.90;99.90
7566;DHT22;3824;48.010;7.832;2022-08-02T05:30:23;17.00;99.90
7566;DHT22;3824;48.010;7.832;2022-08-02T05:32:50;17.10;99.90
7566;DHT22;3824;48.010;7.832;2022-08-02T05:35:19;17.20;99.90
7566;DHT22;3824;48.010;7.832;2022-08-02T05:37:46;17.20;99.90
7566;DHT22;3824;48.010;7.832;2022-08-02T05:40:14;17.40;99.90
7566;DHT22;3824;48.010;7.832;2022-08-02T05:42:42;17.40;99.90
7566;DHT22;3824;48.010;7.832;2022-08-02T05:45:09;17.50;99.90
7566;DHT22;3824;48.010;7.832;2022-08-02T05:47:37;17.60;99.90
7566;DHT22;3824;48.010;7.832;2022-08-02T05:50:05;17.60;99.90
7566;DHT22;3824;48.010;7.832;2022-08-02T05:52:40;17.60;99.90
7566;DHT22;3824;48.010;7.832;2022-08-02T05:55:12;17.70;99.90
7566;DHT22;3824;48.010;7.832;2022-08-02T05:57:51;17.80;99.90
7566;DHT22;3824;48.010;7.832;2022-08-02T06:00:19;17.80;99.90
7566;DHT22;3824;48.010;7.832;2022-08-02T06:03:02;17.90;99.90
7566;DHT22;3824;48.010;7.832;2022-08-02T06:05:33;17.90;99.90
7566;DHT22;3824;48.010;7.832;2022-08-02T06:08:01;18.00;99.90
7566;DHT22;3824;48.010;7.832;2022-08-02T06:10:29;18.00;99.90
7566;DHT22;3824;48.010;7.832;2022-08-02T06:13:07;18.00;99.90
7566;DHT22;3824;48.010;7.832;2022-08-02T06:15:35;18.10;99.90
7566;DHT22;3824;48.010;7.832;2022-08-02T06:18:03;18.10;99.90
7566;DHT22;3824;48.010;7.832;2022-08-02T06:20:31;18.10;99.90
7566;DHT22;3824;48.010;7.832;2022-08-02T06:23:00;18.10;99.90
7566;DHT22;3824;48.010;7.832;2022-08-02T06:25:29;18.10;99.90
7566;DHT22;3824;48.010;7.832;2022-08-02T06:27:57;18.00;99.90
7566;DHT22;3824;48.010;7.832;2022-08-02T06:30:26;17.90;99.90
7566;DHT22;3824;48.010;7.832;2022-08-02T06:32:53;17.80;99.90
7566;DHT22;3824;48.010;7.832;2022-08-02T06:35:21;17.70;99.90
7566;DHT22;3824;48.010;7.832;2022-08-02T06:37:51;17.70;99.90
7566;DHT22;3824;48.010;7.832;2022-08-02T06:40:25;17.70;99.90
7566;DHT22;3824;48.010;7.832;2022-08-02T06:43:05;17.80;99.90
7566;DHT22;3824;48.010;7.832;2022-08-02T06:45:38;18.00;99.90
7566;DHT22;3824;48.010;7.832;2022-08-02T06:48:06;17.90;99.90
7566;DHT22;3824;48.010;7.832;2022-08-02T06:50:34;17.90;99.90
7566;DHT22;3824;48.010;7.832;2022-08-02T06:53:03;17.90;99.90
7566;DHT22;3824;48.010;7.832;2022-08-02T06:55:30;18.00;99.90
7566;DHT22;3824;48.010;7.832;2022-08-02T06:57:57;18.10;99.90
7566;DHT22;3824;48.010;7.832;2022-08-02T07:00:25;18.20;99.90
7566;DHT22;3824;48.010;7.832;2022-08-02T07:02:53;18.30;99.90
7566;DHT22;3824;48.010;7.832;2022-08-02T07:05:21;18.30;99.90
7566;DHT22;3824;48.010;7.832;2022-08-02T07:07:48;18.20;99.90
7566;DHT22;3824;48.010;7.832;2022-08-02T07:10:15;18.20;99.90
7566;DHT22;3824;48.010;7.832;2022-08-02T07:12:42;18.20;99.90
7566;DHT22;3824;48.010;7.832;2022-08-02T07:15:09;18.30;99.90
7566;DHT22;3824;48.010;7.832;2022-08-02T07:17:37;18.30;99.90
7566;DHT22;3824;48.010;7.832;2022-08-02T07:20:06;18.30;99.90
7566;DHT22;3824;48.010;7.832;2022-08-02T07:22:34;18.40;99.90
7566;DHT22;3824;48.010;7.832;2022-08-02T07:25:01;18.50;99.90
7566;DHT22;3824;48.010;7.832;2022-08-02T07:27:29;18.50;99.90
7566;DHT22;3824;48.010;7.832;2022-08-02T07:29:56;18.50;99.90
7566;DHT22;3824;48.010;7.832;2022-08-02T07:32:25;18.60;99.90
7566;DHT22;3824;48.010;7.832;2022-08-02T07:34:52;18.70;99.90
7566;DHT22;3824;48.010;7.832;2022-08-02T07:37:22;18.70;99.90
7566;DHT22;3824;48.010;7.832;2022-08-02T07:39:49;18.90;99.90
7566;DHT22;3824;48.010;7.832;2022-08-02T07:42:16;18.80;99.90
7566;DHT22;3824;48.010;7.832;2022-08-02T07:44:43;18.70;99.90
7566;DHT22;3824;48.010;7.832;2022-08-02T07:47:10;18.80;99.90
7566;DHT22;3824;48.010;7.832;2022-08-02T07:49:37;18.80;99.90
7566;DHT22;3824;48.010;7.832;2022-08-02T07:52:04;18.80;99.90
7566;DHT22;3824;48.010;7.832;2022-08-02T07:54:33;18.90;99.90
7566;DHT22;3824;48.010;7.832;2022-08-02T07:56:59;18.90;99.90
7566;DHT22;3824;48.010;7.832;2022-08-02T07:59:26;18.90;99.90
7566;DHT22;3824;48.010;7.832;2022-08-02T08:01:53;18.90;99.90
7566;DHT22;3824;48.010;7.832;2022-08-02T08:04:20;19.10;99.90
7566;DHT22;3824;48.010;7.832;2022-08-02T08:06:47;19.10;99.90
7566;DHT22;3824;48.010;7.832;2022-08-02T08:09:16;19.20;99.90
7566;DHT22;3824;48.010;7.832;2022-08-02T08:11:44;19.40;99.90
7566;DHT22;3824;48.010;7.832;2022-08-02T08:14:11;19.50;99.90
7566;DHT22;3824;48.010;7.832;2022-08-02T08:16:38;19.50;99.90
7566;DHT22;3824;48.010;7.832;2022-08-02T08:19:05;19.60;99.90
7566;DHT22;3824;48.010;7.832;2022-08-02T08:21:32;19.80;99.90
7566;DHT22;3824;48.010;7.832;2022-08-02T08:24:00;19.80;99.90
7566;DHT22;3824;48.010;7.832;2022-08-02T08:26:29;19.80;99.90
7566;DHT22;3824;48.010;7.832;2022-08-02T08:28:57;19.60;99.90
7566;DHT22;3824;48.010;7.832;2022-08-02T08:31:25;19.60;99.90
7566;DHT22;3824;48.010;7.832;2022-08-02T08:33:52;19.50;99.90
7566;DHT22;3824;48.010;7.832;2022-08-02T08:36:18;19.40;99.90
7566;DHT22;3824;48.010;7.832;2022-08-02T08:38:46;19.30;99.90
7566;DHT22;3824;48.010;7.832;2022-08-02T08:41:15;19.20;99.90
7566;DHT22;3824;48.010;7.832;2022-08-02T08:43:42;19.20;99.90
7566;DHT22;3824;48.010;7.832;2022-08-02T08:46:10;19.10;99.90
7566;DHT22;3824;48.010;7.832;2022-08-02T08:48:45;19.00;99.90
7566;DHT22;3824;48.010;7.832;2022-08-02T08:51:16;19.00;99.90
7566;DHT22;3824;48.010;7.832;2022-08-02T08:53:47;19.20;99.90
7566;DHT22;3824;48.010;7.832;2022-08-02T08:56:15;19.10;99.90
7566;DHT22;3824;48.010;7.832;2022-08-02T08:58:43;19.20;99.90
7566;DHT22;3824;48.010;7.832;2022-08-02T09:01:13;19.30;99.90
7566;DHT22;3824;48.010;7.832;2022-08-02T09:03:41;19.40;99.90
7566;DHT22;3824;48.010;7.832;2022-08-02T09:06:08;19.60;99.90
7566;DHT22;3824;48.010;7.832;2022-08-02T09:08:35;19.40;99.90
7566;DHT22;3824;48.010;7.832;2022-08-02T09:11:11;19.10;99.90
7566;DHT22;3824;48.010;7.832;2022-08-02T09:13:48;19.10;99.90
7566;DHT22;3824;48.010;7.832;2022-08-02T09:16:27;19.10;99.90
7566;DHT22;3824;48.010;7.832;2022-08-02T09:18:54;19.20;99.90
7566;DHT22;3824;48.010;7.832;2022-08-02T09:21:21;19.10;99.90
7566;DHT22;3824;48.010;7.832;2022-08-02T09:23:50;19.20;99.90
7566;DHT22;3824;48.010;7.832;2022-08-02T09:26:18;19.20;99.90
7566;DHT22;3824;48.010;7.832;2022-08-02T09:28:46;19.10;99.90
7566;DHT22;3824;48.010;7.832;2022-08-02T09:31:17;19.10;99.90
7566;DHT22;3824;48.010;7.832;2022-08-02T09:33:49;19.10;99.90
7566;DHT22;3824;48.010;7.832;2022-08-02T09:36:17;18.80;99.90
7566;DHT22;3824;48.010;7.832;2022-08-02T09:38:52;18.60;99.90
7566;DHT22;3824;48.010;7.832;2022-08-02T09:41:21;18.50;99.90
7566;DHT22;3824;48.010;7.832;2022-08-02T09:43:49;18.50;99.90
7566;DHT22;3824;48.010;7.832;2022-08-02T09:46:19;18.70;99.90
7566;DHT22;3824;48.010;7.832;2022-08-02T09:48:50;19.00;99.90
7566;DHT22;3824;48.010;7.832;2022-08-02T09:51:19;19.00;99.90
7566;DHT22;3824;48.010;7.832;2022-08-02T09:53:48;19.00;99.90
7566;DHT22;3824;48.010;7.832;2022-08-02T09:56:17;18.90;99.90
7566;DHT22;3824;48.010;7.832;2022-08-02T09:58:44;19.00;99.90
7566;DHT22;3824;48.010;7.832;2022-08-02T10:01:12;19.00;99.90
7566;DHT22;3824;48.010;7.832;2022-08-02T10:03:53;19.10;99.90
7566;DHT22;3824;48.010;7.832;2022-08-02T10:06:20;19.10;99.90
7566;DHT22;3824;48.010;7.832;2022-08-02T10:08:48;19.20;99.90
7566;DHT22;3824;48.010;7.832;2022-08-02T10:11:15;19.30;99.90
7566;DHT22;3824;48.010;7.832;2022-08-02T10:13:42;19.20;99.90
7566;DHT22;3824;48.010;7.832;2022-08-02T10:16:10;19.20;99.90
7566;DHT22;3824;48.010;7.832;2022-08-02T10:18:38;19.20;99.90
7566;DHT22;3824;48.010;7.832;2022-08-02T10:21:12;19.30;99.90
7566;DHT22;3824;48.010;7.832;2022-08-02T10:23:42;19.30;99.90
7566;DHT22;3824;48.010;7.832;2022-08-02T10:26:14;19.30;99.90
7566;DHT22;3824;48.010;7.832;2022-08-02T10:28:41;19.40;99.90
7566;DHT22;3824;48.010;7.832;2022-08-02T10:31:11;19.30;99.90
7566;DHT22;3824;48.010;7.832;2022-08-02T10:33:41;19.30;99.90
7566;DHT22;3824;48.010;7.832;2022-08-02T10:36:12;19.40;99.90
7566;DHT22;3824;48.010;7.832;2022-08-02T10:38:40;19.30;99.90
7566;DHT22;3824;48.010;7.832;2022-08-02T10:41:07;19.30;99.90
7566;DHT22;3824;48.010;7.832;2022-08-02T10:43:42;19.40;99.90
7566;DHT22;3824;48.010;7.832;2022-08-02T10:46:23;19.40;99.90
7566;DHT22;3824;48.010;7.832;2022-08-02T10:49:06;19.50;99.90
7566;DHT22;3824;48.010;7.832;2022-08-02T10:51:56;19.50;99.90
7566;DHT22;3824;48.010;7.832;2022-08-02T10:54:24;19.60;99.90
7566;DHT22;3824;48.010;7.832;2022-08-02T10:56:53;19.80;99.90
7566;DHT22;3824;48.010;7.832;2022-08-02T10:59:24;19.90;99.90
7566;DHT22;3824;48.010;7.832;2022-08-02T11:01:52;19.80;99.90
7566;DHT22;3824;48.010;7.832;2022-08-02T11:04:29;19.70;99.90
7566;DHT22;3824;48.010;7.832;2022-08-02T11:07:08;19.70;99.90
7566;DHT22;3824;48.010;7.832;2022-08-02T11:09:35;19.40;99.90
7566;DHT22;3824;48.010;7.832;2022-08-02T11:12:04;19.40;99.90
7566;DHT22;3824;48.010;7.832;2022-08-02T11:14:34;19.50;99.90
7566;DHT22;3824;48.010;7.832;2022-08-02T11:17:10;19.60;99.90
7566;DHT22;3824;48.010;7.832;2022-08-02T11:20:14;19.70;99.90
7566;DHT22;3824;48.010;7.832;2022-08-02T11:22:44;19.70;99.90
7566;DHT22;3824;48.010;7.832;2022-08-02T11:25:34;19.80;99.90
7566;DHT22;3824;48.010;7.832;2022-08-02T11:28:09;20.10;99.90
7566;DHT22;3824;48.010;7.832;2022-08-02T11:30:36;20.00;99.90
7566;DHT22;3824;48.010;7.832;2022-08-02T11:33:04;20.20;99.90
7566;DHT22;3824;48.010;7.832;2022-08-02T11:35:32;20.40;99.90
7566;DHT22;3824;48.010;7.832;2022-08-02T11:38:16;20.60;99.90
7566;DHT22;3824;48.010;7.832;2022-08-02T11:40:44;20.80;99.90
7566;DHT22;3824;48.010;7.832;2022-08-02T11:43:21;21.10;99.90
7566;DHT22;3824;48.010;7.832;2022-08-02T11:45:50;21.50;99.90
7566;DHT22;3824;48.010;7.832;2022-08-02T11:48:32;21.90;99.90
7566;DHT22;3824;48.010;7.832;2022-08-02T11:51:07;22.10;99.90
7566;DHT22;3824;48.010;7.832;2022-08-02T11:53:44;22.50;99.90
7566;DHT22;3824;48.010;7.832;2022-08-02T11:56:11;23.10;99.90
7566;DHT22;3824;48.010;7.832;2022-08-02T11:58:39;23.40;99.90
7566;DHT22;3824;48.010;7.832;2022-08-02T12:01:06;23.90;99.90
7566;DHT22;3824;48.010;7.832;2022-08-02T12:03:35;24.20;99.90
7566;DHT22;3824;48.010;7.832;2022-08-02T12:06:03;24.70;99.90
7566;DHT22;3824;48.010;7.832;2022-08-02T12:08:31;25.10;99.90
7566;DHT22;3824;48.010;7.832;2022-08-02T12:11:01;25.40;99.90
7566;DHT22;3824;48.010;7.832;2022-08-02T12:13:41;25.80;99.90
7566;DHT22;3824;48.010;7.832;2022-08-02T12:16:11;26.00;99.90
7566;DHT22;3824;48.010;7.832;2022-08-02T12:18:56;26.30;99.90
7566;DHT22;3824;48.010;7.832;2022-08-02T12:21:40;26.60;99.90
7566;DHT22;3824;48.010;7.832;2022-08-02T12:24:07;26.80;99.90
7566;DHT22;3824;48.010;7.832;2022-08-02T12:26:42;27.00;99.90
7566;DHT22;3824;48.010;7.832;2022-08-02T12:29:09;27.20;99.90
7566;DHT22;3824;48.010;7.832;2022-08-02T12:31:41;27.40;99.90
7566;DHT22;3824;48.010;7.832;2022-08-02T12:34:13;27.60;99.90
7566;DHT22;3824;48.010;7.832;2022-08-02T12:36:42;27.70;99.90
7566;DHT22;3824;48.010;7.832;2022-08-02T12:39:12;27.80;99.90
7566;DHT22;3824;48.010;7.832;2022-08-02T12:41:39;27.80;99.90
7566;DHT22;3824;48.010;7.832;2022-08-02T12:44:15;27.80;99.90
7566;DHT22;3824;48.010;7.832;2022-08-02T12:46:42;27.90;99.90
7566;DHT22;3824;48.010;7.832;2022-08-02T12:49:16;27.90;99.90
7566;DHT22;3824;48.010;7.832;2022-08-02T12:51:44;28.10;99.90
7566;DHT22;3824;48.010;7.832;2022-08-02T12:54:14;28.20;99.90
7566;DHT22;3824;48.010;7.832;2022-08-02T12:56:42;28.40;99.90
7566;DHT22;3824;48.010;7.832;2022-08-02T12:59:09;28.40;99.80
7566;DHT22;3824;48.010;7.832;2022-08-02T13:01:38;28.50;99.90
7566;DHT22;3824;48.010;7.832;2022-08-02T13:04:05;28.60;99.90
7566;DHT22;3824;48.010;7.832;2022-08-02T13:06:32;28.80;99.90
7566;DHT22;3824;48.010;7.832;2022-08-02T13:08:59;28.90;99.90
7566;DHT22;3824;48.010;7.832;2022-08-02T13:11:27;29.10;99.70
7566;DHT22;3824;48.010;7.832;2022-08-02T13:13:54;29.10;97.50
7566;DHT22;3824;48.010;7.832;2022-08-02T13:16:21;29.20;96.60
7566;DHT22;3824;48.010;7.832;2022-08-02T13:18:50;29.10;96.70
7566;DHT22;3824;48.010;7.832;2022-08-02T13:21:17;29.10;97.00
7566;DHT22;3824;48.010;7.832;2022-08-02T13:23:44;29.20;96.90
7566;DHT22;3824;48.010;7.832;2022-08-02T13:26:11;29.30;97.30
7566;DHT22;3824;48.010;7.832;2022-08-02T13:28:37;29.40;96.40
7566;DHT22;3824;48.010;7.832;2022-08-02T13:31:07;29.60;94.00
7566;DHT22;3824;48.010;7.832;2022-08-02T13:33:34;29.60;91.70
7566;DHT22;3824;48.010;7.832;2022-08-02T13:36:03;29.70;91.90
7566;DHT22;3824;48.010;7.832;2022-08-02T13:38:30;29.80;91.50
7566;DHT22;3824;48.010;7.832;2022-08-02T13:40:57;30.00;92.00
7566;DHT22;3824;48.010;7.832;2022-08-02T13:43:38;30.20;91.60
7566;DHT22;3824;48.010;7.832;2022-08-02T13:46:06;30.40;91.10
7566;DHT22;3824;48.010;7.832;2022-08-02T13:48:33;30.60;87.00
7566;DHT22;3824;48.010;7.832;2022-08-02T13:51:02;30.60;85.70
7566;DHT22;3824;48.010;7.832;2022-08-02T13:53:29;30.60;86.60
7566;DHT22;3824;48.010;7.832;2022-08-02T13:55:55;30.80;87.30
7566;DHT22;3824;48.010;7.832;2022-08-02T13:58:23;31.00;85.00
7566;DHT22;3824;48.010;7.832;2022-08-02T14:00:50;31.10;79.70
7566;DHT22;3824;48.010;7.832;2022-08-02T14:03:17;31.00;77.90
7566;DHT22;3824;48.010;7.832;2022-08-02T14:05:44;31.00;78.40
7566;DHT22;3824;48.010;7.832;2022-08-02T14:08:12;31.00;78.30
7566;DHT22;3824;48.010;7.832;2022-08-02T14:10:39;31.10;77.60
7566;DHT22;3824;48.010;7.832;2022-08-02T14:13:06;31.20;77.40
7566;DHT22;3824;48.010;7.832;2022-08-02T14:15:33;31.30;74.70
7566;DHT22;3824;48.010;7.832;2022-08-02T14:18:00;31.10;72.00
7566;DHT22;3824;48.010;7.832;2022-08-02T14:20:27;31.00;71.90
7566;DHT22;3824;48.010;7.832;2022-08-02T14:22:54;30.90;72.20
7566;DHT22;3824;48.010;7.832;2022-08-02T14:25:22;30.70;71.30
7566;DHT22;3824;48.010;7.832;2022-08-02T14:27:50;30.70;70.90
7566;DHT22;3824;48.010;7.832;2022-08-02T14:30:17;30.50;70.40
7566;DHT22;3824;48.010;7.832;2022-08-02T14:32:45;30.50;71.60
7566;DHT22;3824;48.010;7.832;2022-08-02T14:35:12;30.50;70.50
7566;DHT22;3824;48.010;7.832;2022-08-02T14:37:39;30.50;70.60
7566;DHT22;3824;48.010;7.832;2022-08-02T14:40:07;30.50;69.40
7566;DHT22;3824;48.010;7.832;2022-08-02T14:42:35;30.60;70.20
7566;DHT22;3824;48.010;7.832;2022-08-02T14:45:02;30.80;70.00
7566;DHT22;3824;48.010;7.832;2022-08-02T14:47:29;30.90;69.30
7566;DHT22;3824;48.010;7.832;2022-08-02T14:49:56;31.10;69.00
7566;DHT22;3824;48.010;7.832;2022-08-02T14:52:23;31.20;66.80
7566;DHT22;3824;48.010;7.832;2022-08-02T14:54:50;31.10;65.50
7566;DHT22;3824;48.010;7.832;2022-08-02T14:57:17;31.00;66.20
7566;DHT22;3824;48.010;7.832;2022-08-02T14:59:45;30.90;67.00
7566;DHT22;3824;48.010;7.832;2022-08-02T15:02:12;30.80;66.70
7566;DHT22;3824;48.010;7.832;2022-08-02T15:04:39;30.80;66.30
7566;DHT22;3824;48.010;7.832;2022-08-02T15:07:06;30.70;66.40
7566;DHT22;3824;48.010;7.832;2022-08-02T15:09:32;30.70;66.10
7566;DHT22;3824;48.010;7.832;2022-08-02T15:11:59;30.80;67.50
7566;DHT22;3824;48.010;7.832;2022-08-02T15:14:26;30.90;66.10
7566;DHT22;3824;48.010;7.832;2022-08-02T15:16:54;30.90;65.60
7566;DHT22;3824;48.010;7.832;2022-08-02T15:19:21;30.90;65.20
7566;DHT22;3824;48.010;7.832;2022-08-02T15:21:48;30.80;65.20
7566;DHT22;3824;48.010;7.832;2022-08-02T15:24:15;30.90;66.00
7566;DHT22;3824;48.010;7.832;2022-08-02T15:26:42;30.90;65.20
7566;DHT22;3824;48.010;7.832;2022-08-02T15:29:09;31.10;65.60
7566;DHT22;3824;48.010;7.832;2022-08-02T15:31:36;29.60;64.10
7566;DHT22;3824;48.010;7.832;2022-08-02T15:34:04;31.30;65.10
7566;DHT22;3824;48.010;7.832;2022-08-02T15:36:31;31.40;63.90
7566;DHT22;3824;48.010;7.832;2022-08-02T15:38:58;31.30;63.70
7566;DHT22;3824;48.010;7.832;2022-08-02T15:41:25;31.20;64.00
7566;DHT22;3824;48.010;7.832;2022-08-02T15:43:51;31.30;65.10
7566;DHT22;3824;48.010;7.832;2022-08-02T15:46:18;31.30;64.40
7566;DHT22;3824;48.010;7.832;2022-08-02T15:48:45;31.30;63.80
7566;DHT22;3824;48.010;7.832;2022-08-02T15:51:13;31.30;64.10
7566;DHT22;3824;48.010;7.832;2022-08-02T15:53:40;31.20;64.20
7566;DHT22;3824;48.010;7.832;2022-08-02T15:56:07;31.10;64.60
7566;DHT22;3824;48.010;7.832;2022-08-02T15:58:34;31.00;63.90
7566;DHT22;3824;48.010;7.832;2022-08-02T16:01:01;31.00;64.40
7566;DHT22;3824;48.010;7.832;2022-08-02T16:03:28;31.00;63.70
7566;DHT22;3824;48.010;7.832;2022-08-02T16:05:55;31.00;62.80
7566;DHT22;3824;48.010;7.832;2022-08-02T16:08:23;30.90;63.40
7566;DHT22;3824;48.010;7.832;2022-08-02T16:10:50;33.10;64.20
7566;DHT22;3824;48.010;7.832;2022-08-02T16:13:17;30.90;64.10